sensor_id;sensor_type;location;lat;lon;timestamp;pressure;altitude;pressure_sealevel;temperature;humidity
46846;BME280;33947;46.804;134.252;2022-09-20T00:01:32;99945.91;;;8.70;42.64
46846;BME280;33947;46.804;134.252;2022-09-20T00:04:38;99921.69;;;8.84;43.75
46846;BME280;33947;46.804;134.252;2022-09-20T00:07:44;99997.59;;;9.15;42.99
46846;BME280;33947;46.804;134.252;2022-09-20T00:10:49;99999.25;;;9.19;42.21
46846;BME280;33947;46.804;134.252;2022-09-20T00:13:56;99924.91;;;8.64;42.88
46846;BME280;33947;46.804;134.252;2022-09-20T00:17:01;99951.09;;;9.05;42.54
46846;BME280;33947;46.804;134.252;2022-09-20T00:20:06;100000.22;;;9.17;40.08
46846;BME280;33947;46.804;134.252;2022-09-20T00:23:12;100016.03;;;9.20;41.78
46846;BME280;33947;46.804;134.252;2022-09-20T00:26:17;99979.31;;;9.36;42.64
46846;BME280;33947;46.804;134.252;2022-09-20T00:29:22;100010.34;;;9.89;40.26
46846;BME280;33947;46.804;134.252;2022-09-20T00:32:28;99881.50;;;9.55;42.09
46846;BME280;33947;46.804;134.252;2022-09-20T00:35:34;99949.91;;;9.72;39.57
46846;BME280;33947;46.804;134.252;2022-09-20T00:38:39;99983.97;;;10.64;39.65
46846;BME280;33947;46.804;134.252;2022-09-20T00:41:45;100025.69;;;10.33;40.10
46846;BME280;33947;46.804;134.252;2022-09-20T00:44:59;100040.25;;;10.99;41.63
46846;BME280;33947;46.804;134.252;2022-09-20T00:48:12;100007.84;;;11.59;37.33
46846;BME280;33947;46.804;134.252;2022-09-20T00:51:27;99969.34;;;10.99;37.32
46846;BME280;33947;46.804;134.252;2022-09-20T00:54:35;100027.59;;;11.98;38.82
46846;BME280;33947;46.804;134.252;2022-09-20T00:57:41;99959.00;;;12.05;33.50
46846;BME280;33947;46.804;134.252;2022-09-20T01:00:49;100058.59;;;11.99;38.69
46846;BME280;33947;46.804;134.252;2022-09-20T01:03:56;99996.50;;;11.76;36.26
46846;BME280;33947;46.804;134.252;2022-09-20T01:07:02;99959.88;;;13.25;36.71
46846;BME280;33947;46.804;134.252;2022-09-20T01:10:09;99964.84;;;13.52;34.81
46846;BME280;33947;46.804;134.252;2022-09-20T01:13:14;99947.03;;;14.42;34.35
46846;BME280;33947;46.804;134.252;2022-09-20T01:16:20;99973.34;;;14.14;34.14
46846;BME280;33947;46.804;134.252;2022-09-20T01:19:37;99970.88;;;14.80;30.32
46846;BME280;33947;46.804;134.252;2022-09-20T01:22:49;100047.66;;;13.50;33.32
46846;BME280;33947;46.804;134.252;2022-09-20T01:29:16;100029.19;;;13.65;34.12
46846;BME280;33947;46.804;134.252;2022-09-20T01:32:54;99990.78;;;13.86;34.05
46846;BME280;33947;46.804;134.252;2022-09-20T01:35:59;100042.81;;;13.78;33.23
46846;BME280;33947;46.804;134.252;2022-09-20T01:39:11;100046.81;;;14.76;31.67
46846;BME280;33947;46.804;134.252;2022-09-20T01:42:23;100036.22;;;14.74;32.44
46846;BME280;33947;46.804;134.252;2022-09-20T01:45:31;100021.22;;;15.05;30.90
46846;BME280;33947;46.804;134.252;2022-09-20T01:48:37;100044.22;;;13.48;32.59
46846;BME280;33947;46.804;134.252;2022-09-20T01:55:36;99998.22;;;13.03;32.64
46846;BME280;33947;46.804;134.252;2022-09-20T02:13:28;100067.59;;;11.26;35.44
46846;BME280;33947;46.804;134.252;2022-09-20T02:20:14;100072.31;;;11.42;35.74
46846;BME280;33947;46.804;134.252;2022-09-20T02:34:31;100076.63;;;13.58;33.84
46846;BME280;33947;46.804;134.252;2022-09-20T02:41:30;100083.09;;;13.33;33.64
46846;BME280;33947;46.804;134.252;2022-09-20T02:47:59;100002.63;;;11.56;35.13
46846;BME280;33947;46.804;134.252;2022-09-20T03:01:29;100105.66;;;12.84;34.20
46846;BME280;33947;46.804;134.252;2022-09-20T03:11:35;100107.72;;;11.68;36.84
46846;BME280;33947;46.804;134.252;2022-09-20T03:14:54;100041.06;;;11.25;35.35
46846;BME280;33947;46.804;134.252;2022-09-20T03:18:15;100088.03;;;10.50;36.72
46846;BME280;33947;46.804;134.252;2022-09-20T03:21:34;100062.28;;;10.77;37.15
46846;BME280;33947;46.804;134.252;2022-09-20T03:35:01;100136.63;;;9.95;36.40
46846;BME280;33947;46.804;134.252;2022-09-20T03:44:49;100127.13;;;11.22;36.53
46846;BME280;33947;46.804;134.252;2022-09-20T04:02:23;100111.19;;;11.22;36.25
46846;BME280;33947;46.804;134.252;2022-09-20T04:05:47;100128.63;;;11.29;37.09
46846;BME280;33947;46.804;134.252;2022-09-20T04:16:14;100097.91;;;11.92;35.57
46846;BME280;33947;46.804;134.252;2022-09-20T04:20:02;100119.03;;;11.25;35.76
46846;BME280;33947;46.804;134.252;2022-09-20T04:26:43;100141.19;;;11.50;37.60
46846;BME280;33947;46.804;134.252;2022-09-20T04:30:01;100127.38;;;11.64;37.41
46846;BME280;33947;46.804;134.252;2022-09-20T04:40:00;100094.06;;;11.53;35.56
46846;BME280;33947;46.804;134.252;2022-09-20T04:46:35;100077.06;;;12.04;36.35
46846;BME280;33947;46.804;134.252;2022-09-20T04:57:41;100136.19;;;11.17;35.30
46846;BME280;33947;46.804;134.252;2022-09-20T05:04:51;100138.06;;;11.86;35.21
46846;BME280;33947;46.804;134.252;2022-09-20T05:14:59;100039.16;;;11.05;32.89
46846;BME280;33947;46.804;134.252;2022-09-20T05:22:13;100122.78;;;11.67;34.95
46846;BME280;33947;46.804;134.252;2022-09-20T05:29:01;100089.53;;;11.79;35.05
46846;BME280;33947;46.804;134.252;2022-09-20T05:42:53;100139.00;;;11.85;35.29
46846;BME280;33947;46.804;134.252;2022-09-20T05:49:26;100139.16;;;12.04;34.50
46846;BME280;33947;46.804;134.252;2022-09-20T06:03:36;100137.56;;;12.22;33.09
46846;BME280;33947;46.804;134.252;2022-09-20T06:10:31;100142.47;;;12.33;34.82
46846;BME280;33947;46.804;134.252;2022-09-20T06:13:54;100087.00;;;11.98;33.45
46846;BME280;33947;46.804;134.252;2022-09-20T06:17:20;100100.25;;;11.78;33.93
46846;BME280;33947;46.804;134.252;2022-09-20T06:20:50;100139.72;;;12.35;35.39
46846;BME280;33947;46.804;134.252;2022-09-20T06:23:59;100135.28;;;12.35;34.77
46846;BME280;33947;46.804;134.252;2022-09-20T06:27:22;100115.72;;;12.14;33.74
46846;BME280;33947;46.804;134.252;2022-09-20T06:30:33;100154.88;;;11.86;33.81
46846;BME280;33947;46.804;134.252;2022-09-20T06:34:02;100140.38;;;11.95;33.59
46846;BME280;33947;46.804;134.252;2022-09-20T06:37:32;100154.41;;;11.77;32.90
46846;BME280;33947;46.804;134.252;2022-09-20T06:41:00;100126.28;;;11.46;32.19
46846;BME280;33947;46.804;134.252;2022-09-20T06:44:25;100063.00;;;11.30;33.19
46846;BME280;33947;46.804;134.252;2022-09-20T06:47:30;100101.31;;;11.50;33.89
46846;BME280;33947;46.804;134.252;2022-09-20T06:50:41;100142.59;;;11.84;33.25
46846;BME280;33947;46.804;134.252;2022-09-20T06:53:49;100094.97;;;11.52;33.82
46846;BME280;33947;46.804;134.252;2022-09-20T06:56:54;100160.84;;;11.69;30.63
46846;BME280;33947;46.804;134.252;2022-09-20T06:59:59;100092.94;;;11.35;33.07
46846;BME280;33947;46.804;134.252;2022-09-20T07:03:05;100106.31;;;11.34;33.39
46846;BME280;33947;46.804;134.252;2022-09-20T07:06:10;100156.00;;;11.57;33.06
46846;BME280;33947;46.804;134.252;2022-09-20T07:09:15;100130.84;;;11.42;33.96
46846;BME280;33947;46.804;134.252;2022-09-20T07:12:20;100109.34;;;11.24;32.12
46846;BME280;33947;46.804;134.252;2022-09-20T07:15:27;100115.88;;;11.39;34.11
46846;BME280;33947;46.804;134.252;2022-09-20T07:18:32;100123.44;;;11.50;34.46
46846;BME280;33947;46.804;134.252;2022-09-20T07:21:37;100093.34;;;11.00;34.36
46846;BME280;33947;46.804;134.252;2022-09-20T07:24:42;100178.22;;;11.56;34.98
46846;BME280;33947;46.804;134.252;2022-09-20T07:27:49;100140.69;;;11.14;33.81
46846;BME280;33947;46.804;134.252;2022-09-20T07:30:54;100211.81;;;11.58;35.27
46846;BME280;33947;46.804;134.252;2022-09-20T07:33:58;100205.31;;;11.42;35.36
46846;BME280;33947;46.804;134.252;2022-09-20T07:37:03;100211.00;;;11.56;35.12
46846;BME280;33947;46.804;134.252;2022-09-20T07:40:09;100194.91;;;11.36;35.82
46846;BME280;33947;46.804;134.252;2022-09-20T07:43:15;100160.81;;;11.22;36.02
46846;BME280;33947;46.804;134.252;2022-09-20T07:46:19;100173.84;;;11.04;34.48
46846;BME280;33947;46.804;134.252;2022-09-20T07:49:28;100241.13;;;11.32;35.61
46846;BME280;33947;46.804;134.252;2022-09-20T07:52:33;100181.19;;;10.96;34.79
46846;BME280;33947;46.804;134.252;2022-09-20T07:55:37;100213.50;;;11.10;35.72
46846;BME280;33947;46.804;134.252;2022-09-20T07:58:42;100264.19;;;11.31;35.98
46846;BME280;33947;46.804;134.252;2022-09-20T08:01:54;100168.19;;;10.61;35.83
46846;BME280;33947;46.804;134.252;2022-09-20T08:05:00;100238.81;;;10.95;36.09
46846;BME280;33947;46.804;134.252;2022-09-20T08:08:05;100277.69;;;11.25;36.56
46846;BME280;33947;46.804;134.252;2022-09-20T08:11:15;100274.84;;;11.04;36.00
46846;BME280;33947;46.804;134.252;2022-09-20T08:14:21;100272.19;;;11.04;37.29
46846;BME280;33947;46.804;134.252;2022-09-20T08:17:27;100250.81;;;10.80;37.91
46846;BME280;33947;46.804;134.252;2022-09-20T08:20:35;100233.75;;;10.61;37.25
46846;BME280;33947;46.804;134.252;2022-09-20T08:23:43;100185.19;;;10.27;38.09
46846;BME280;33947;46.804;134.252;2022-09-20T08:26:48;100240.16;;;10.53;38.48
46846;BME280;33947;46.804;134.252;2022-09-20T08:29:53;100267.72;;;10.49;39.48
46846;BME280;33947;46.804;134.252;2022-09-20T08:33:02;100196.31;;;10.10;40.00
46846;BME280;33947;46.804;134.252;2022-09-20T08:36:11;100209.06;;;9.98;40.91
46846;BME280;33947;46.804;134.252;2022-09-20T08:39:18;100285.16;;;10.28;41.74
46846;BME280;33947;46.804;134.252;2022-09-20T08:42:43;100212.81;;;9.60;39.96
46846;BME280;33947;46.804;134.252;2022-09-20T08:45:48;100297.72;;;9.91;38.85
46846;BME280;33947;46.804;134.252;2022-09-20T08:48:57;100285.66;;;9.79;39.69
46846;BME280;33947;46.804;134.252;2022-09-20T08:52:04;100234.38;;;9.47;40.85
46846;BME280;33947;46.804;134.252;2022-09-20T08:55:15;100266.09;;;9.50;40.32
46846;BME280;33947;46.804;134.252;2022-09-20T08:58:20;100260.41;;;9.33;40.73
46846;BME280;33947;46.804;134.252;2022-09-20T09:01:26;100317.31;;;9.52;40.85
46846;BME280;33947;46.804;134.252;2022-09-20T09:04:35;100305.97;;;9.46;42.22
46846;BME280;33947;46.804;134.252;2022-09-20T09:07:40;100211.53;;;8.74;42.28
46846;BME280;33947;46.804;134.252;2022-09-20T09:10:48;100335.44;;;9.35;43.11
46846;BME280;33947;46.804;134.252;2022-09-20T09:17:12;100288.50;;;8.66;44.86
46846;BME280;33947;46.804;134.252;2022-09-20T09:20:21;100282.03;;;8.38;44.81
46846;BME280;33947;46.804;134.252;2022-09-20T09:23:26;100284.75;;;8.35;45.31
46846;BME280;33947;46.804;134.252;2022-09-20T09:26:39;100346.88;;;8.61;47.61
46846;BME280;33947;46.804;134.252;2022-09-20T09:29:54;100360.28;;;8.53;48.19
46846;BME280;33947;46.804;134.252;2022-09-20T09:33:21;100365.63;;;8.49;47.87
46846;BME280;33947;46.804;134.252;2022-09-20T09:36:28;100318.78;;;8.10;47.45
46846;BME280;33947;46.804;134.252;2022-09-20T09:39:34;100325.69;;;7.72;49.74
46846;BME280;33947;46.804;134.252;2022-09-20T09:43:01;100350.34;;;7.72;51.90
46846;BME280;33947;46.804;134.252;2022-09-20T09:46:21;100339.16;;;7.58;51.27
46846;BME280;33947;46.804;134.252;2022-09-20T09:49:30;100392.41;;;7.86;50.24
46846;BME280;33947;46.804;134.252;2022-09-20T09:52:39;100341.28;;;7.37;51.52
46846;BME280;33947;46.804;134.252;2022-09-20T09:56:17;100292.84;;;6.83;53.07
46846;BME280;33947;46.804;134.252;2022-09-20T10:09:42;100396.41;;;7.04;54.68
46846;BME280;33947;46.804;134.252;2022-09-20T10:23:33;100359.56;;;6.29;54.87
46846;BME280;33947;46.804;134.252;2022-09-20T10:34:15;100425.19;;;6.55;55.85
46846;BME280;33947;46.804;134.252;2022-09-20T10:41:00;100456.84;;;6.58;56.81
46846;BME280;33947;46.804;134.252;2022-09-20T10:48:03;100460.16;;;5.87;61.01
46846;BME280;33947;46.804;134.252;2022-09-20T10:58:56;100484.22;;;5.43;65.29
46846;BME280;33947;46.804;134.252;2022-09-20T11:02:22;100450.94;;;5.34;61.62
46846;BME280;33947;46.804;134.252;2022-09-20T11:08:49;100452.78;;;5.17;61.70
46846;BME280;33947;46.804;134.252;2022-09-20T11:12:24;100394.13;;;4.90;61.95
46846;BME280;33947;46.804;134.252;2022-09-20T11:19:00;100480.75;;;5.38;61.27
46846;BME280;33947;46.804;134.252;2022-09-20T11:22:20;100446.63;;;5.21;60.61
46846;BME280;33947;46.804;134.252;2022-09-20T11:25:49;100486.91;;;5.37;61.20
46846;BME280;33947;46.804;134.252;2022-09-20T11:29:20;100435.38;;;4.92;60.73
46846;BME280;33947;46.804;134.252;2022-09-20T11:32:51;100501.06;;;5.19;62.45
46846;BME280;33947;46.804;134.252;2022-09-20T11:36:00;100451.22;;;4.83;61.40
46846;BME280;33947;46.804;134.252;2022-09-20T11:42:42;100489.88;;;4.70;62.83
46846;BME280;33947;46.804;134.252;2022-09-20T11:45:51;100403.25;;;4.20;62.49
46846;BME280;33947;46.804;134.252;2022-09-20T11:49:05;100446.03;;;4.61;61.69
46846;BME280;33947;46.804;134.252;2022-09-20T12:02:50;100370.94;;;3.73;64.39
46846;BME280;33947;46.804;134.252;2022-09-20T12:06:05;100454.94;;;4.22;64.17
46846;BME280;33947;46.804;134.252;2022-09-20T12:09:24;100473.34;;;4.14;66.54
46846;BME280;33947;46.804;134.252;2022-09-20T12:12:41;100472.50;;;4.09;65.54
46846;BME280;33947;46.804;134.252;2022-09-20T12:16:02;100426.97;;;3.55;66.67
46846;BME280;33947;46.804;134.252;2022-09-20T12:22:36;100460.22;;;3.42;67.90
46846;BME280;33947;46.804;134.252;2022-09-20T12:26:34;100451.47;;;3.43;70.39
46846;BME280;33947;46.804;134.252;2022-09-20T12:32:44;100513.63;;;3.54;70.00
46846;BME280;33947;46.804;134.252;2022-09-20T12:35:56;100518.91;;;3.68;68.92
46846;BME280;33947;46.804;134.252;2022-09-20T12:39:15;100479.50;;;3.55;68.35
46846;BME280;33947;46.804;134.252;2022-09-20T12:42:30;100500.53;;;3.66;68.17
46846;BME280;33947;46.804;134.252;2022-09-20T12:45:36;100433.09;;;3.31;67.03
46846;BME280;33947;46.804;134.252;2022-09-20T12:48:40;100476.00;;;3.55;67.28
46846;BME280;33947;46.804;134.252;2022-09-20T12:51:50;100468.09;;;3.58;67.94
46846;BME280;33947;46.804;134.252;2022-09-20T12:58:57;100403.28;;;3.04;69.00
46846;BME280;33947;46.804;134.252;2022-09-20T13:05:45;100475.03;;;3.03;71.09
46846;BME280;33947;46.804;134.252;2022-09-20T13:12:04;100508.34;;;3.37;69.17
46846;BME280;33947;46.804;134.252;2022-09-20T13:15:16;100470.66;;;3.02;70.87
46846;BME280;33947;46.804;134.252;2022-09-20T13:18:23;100465.38;;;2.96;69.49
46846;BME280;33947;46.804;134.252;2022-09-20T13:21:30;100491.66;;;3.11;69.42
46846;BME280;33947;46.804;134.252;2022-09-20T13:24:40;100533.69;;;3.21;70.17
46846;BME280;33947;46.804;134.252;2022-09-20T13:28:07;100499.47;;;2.94;70.75
46846;BME280;33947;46.804;134.252;2022-09-20T13:31:28;100536.22;;;2.91;72.63
46846;BME280;33947;46.804;134.252;2022-09-20T13:34:33;100453.03;;;2.64;70.47
46846;BME280;33947;46.804;134.252;2022-09-20T13:40:52;100462.66;;;2.71;70.13
46846;BME280;33947;46.804;134.252;2022-09-20T13:44:03;100483.47;;;2.35;73.14
46846;BME280;33947;46.804;134.252;2022-09-20T13:47:31;100505.44;;;2.54;74.93
46846;BME280;33947;46.804;134.252;2022-09-20T13:50:38;100533.44;;;2.62;73.87
46846;BME280;33947;46.804;134.252;2022-09-20T13:53:50;100509.91;;;2.75;72.15
46846;BME280;33947;46.804;134.252;2022-09-20T13:57:03;100466.00;;;2.39;73.22
46846;BME280;33947;46.804;134.252;2022-09-20T14:00:13;100505.44;;;2.59;73.91
46846;BME280;33947;46.804;134.252;2022-09-20T14:03:18;100508.19;;;2.78;72.17
46846;BME280;33947;46.804;134.252;2022-09-20T14:06:24;100502.00;;;2.65;71.73
46846;BME280;33947;46.804;134.252;2022-09-20T14:09:35;100479.28;;;2.65;70.84
46846;BME280;33947;46.804;134.252;2022-09-20T14:12:42;100558.19;;;3.16;70.76
46846;BME280;33947;46.804;134.252;2022-09-20T14:15:48;100469.53;;;2.44;70.90
46846;BME280;33947;46.804;134.252;2022-09-20T14:18:53;100523.09;;;2.97;70.37
46846;BME280;33947;46.804;134.252;2022-09-20T14:22:02;100558.94;;;2.84;74.30
46846;BME280;33947;46.804;134.252;2022-09-20T14:28:18;100564.16;;;2.83;71.80
46846;BME280;33947;46.804;134.252;2022-09-20T14:31:30;100434.91;;;1.57;74.49
46846;BME280;33947;46.804;134.252;2022-09-20T14:34:38;100545.41;;;2.24;74.52
46846;BME280;33947;46.804;134.252;2022-09-20T14:37:51;100562.22;;;2.49;73.89
46846;BME280;33947;46.804;134.252;2022-09-20T14:40:56;100494.75;;;2.23;72.89
46846;BME280;33947;46.804;134.252;2022-09-20T14:44:01;100580.81;;;2.86;71.16
46846;BME280;33947;46.804;134.252;2022-09-20T14:47:13;100577.16;;;2.59;75.33
46846;BME280;33947;46.804;134.252;2022-09-20T14:50:41;100543.84;;;2.48;71.42
46846;BME280;33947;46.804;134.252;2022-09-20T14:53:49;100585.91;;;2.62;73.06
46846;BME280;33947;46.804;134.252;2022-09-20T14:56:54;100538.59;;;2.46;72.20
46846;BME280;33947;46.804;134.252;2022-09-20T15:00:06;100520.16;;;2.34;72.51
46846;BME280;33947;46.804;134.252;2022-09-20T15:03:16;100564.81;;;2.48;72.60
46846;BME280;33947;46.804;134.252;2022-09-20T15:06:25;100582.31;;;2.47;73.19
46846;BME280;33947;46.804;134.252;2022-09-20T15:09:30;100541.16;;;2.35;72.49
46846;BME280;33947;46.804;134.252;2022-09-20T15:12:35;100566.53;;;2.39;72.06
46846;BME280;33947;46.804;134.252;2022-09-20T15:15:40;100555.09;;;2.28;72.23
46846;BME280;33947;46.804;134.252;2022-09-20T15:18:47;100536.50;;;1.97;73.52
46846;BME280;33947;46.804;134.252;2022-09-20T15:21:51;100556.81;;;2.24;72.79
46846;BME280;33947;46.804;134.252;2022-09-20T15:24:56;100575.09;;;2.15;74.36
46846;BME280;33947;46.804;134.252;2022-09-20T15:28:01;100563.72;;;2.16;73.34
46846;BME280;33947;46.804;134.252;2022-09-20T15:31:06;100586.53;;;2.26;73.82
46846;BME280;33947;46.804;134.252;2022-09-20T15:34:10;100583.84;;;2.20;73.37
46846;BME280;33947;46.804;134.252;2022-09-20T15:37:15;100574.06;;;1.99;73.53
46846;BME280;33947;46.804;134.252;2022-09-20T15:40:20;100540.81;;;1.93;73.01
46846;BME280;33947;46.804;134.252;2022-09-20T15:43:25;100527.69;;;1.87;72.73
46846;BME280;33947;46.804;134.252;2022-09-20T15:46:30;100564.63;;;2.23;71.65
46846;BME280;33947;46.804;134.252;2022-09-20T15:49:35;100565.09;;;1.72;74.77
46846;BME280;33947;46.804;134.252;2022-09-20T15:52:40;100619.34;;;1.84;76.12
46846;BME280;33947;46.804;134.252;2022-09-20T15:55:45;100591.47;;;1.91;74.46
46846;BME280;33947;46.804;134.252;2022-09-20T15:58:51;100563.38;;;1.76;74.65
46846;BME280;33947;46.804;134.252;2022-09-20T16:02:02;100602.19;;;2.19;73.09
46846;BME280;33947;46.804;134.252;2022-09-20T16:05:07;100592.34;;;1.91;73.90
46846;BME280;33947;46.804;134.252;2022-09-20T16:08:13;100579.22;;;1.88;73.04
46846;BME280;33947;46.804;134.252;2022-09-20T16:11:19;100571.06;;;1.60;74.10
46846;BME280;33947;46.804;134.252;2022-09-20T16:14:25;100603.59;;;1.81;74.37
46846;BME280;33947;46.804;134.252;2022-09-20T16:17:30;100579.91;;;1.70;74.54
46846;BME280;33947;46.804;134.252;2022-09-20T16:20:53;100576.50;;;1.80;74.22
46846;BME280;33947;46.804;134.252;2022-09-20T16:23:58;100603.59;;;1.82;74.30
46846;BME280;33947;46.804;134.252;2022-09-20T16:27:05;100594.78;;;1.72;75.33
46846;BME280;33947;46.804;134.252;2022-09-20T16:30:10;100601.78;;;1.75;75.13
46846;BME280;33947;46.804;134.252;2022-09-20T16:33:15;100607.94;;;1.79;75.81
46846;BME280;33947;46.804;134.252;2022-09-20T16:36:20;100614.88;;;1.73;75.97
46846;BME280;33947;46.804;134.252;2022-09-20T16:39:29;100601.63;;;1.59;75.79
46846;BME280;33947;46.804;134.252;2022-09-20T16:42:34;100595.44;;;1.53;76.55
46846;BME280;33947;46.804;134.252;2022-09-20T16:45:40;100578.03;;;1.56;76.39
46846;BME280;33947;46.804;134.252;2022-09-20T16:48:46;100461.16;;;0.77;77.24
46846;BME280;33947;46.804;134.252;2022-09-20T16:51:51;100638.56;;;1.86;76.90
46846;BME280;33947;46.804;134.252;2022-09-20T16:54:55;100598.19;;;1.65;75.94
46846;BME280;33947;46.804;134.252;2022-09-20T16:58:00;100635.09;;;1.87;75.90
46846;BME280;33947;46.804;134.252;2022-09-20T17:01:06;100642.03;;;1.86;75.13
46846;BME280;33947;46.804;134.252;2022-09-20T17:04:11;100618.22;;;1.63;76.18
46846;BME280;33947;46.804;134.252;2022-09-20T17:07:21;100586.44;;;1.29;76.99
46846;BME280;33947;46.804;134.252;2022-09-20T17:10:26;100631.09;;;1.43;78.62
46846;BME280;33947;46.804;134.252;2022-09-20T17:13:32;100627.63;;;1.44;77.99
46846;BME280;33947;46.804;134.252;2022-09-20T17:16:40;100613.72;;;1.51;77.67
46846;BME280;33947;46.804;134.252;2022-09-20T17:19:45;100645.56;;;1.87;76.14
46846;BME280;33947;46.804;134.252;2022-09-20T17:22:49;100649.03;;;1.86;74.86
46846;BME280;33947;46.804;134.252;2022-09-20T17:26:02;100622.53;;;1.56;76.65
46846;BME280;33947;46.804;134.252;2022-09-20T17:29:10;100604.16;;;1.52;76.53
46846;BME280;33947;46.804;134.252;2022-09-20T17:32:16;100672.53;;;1.78;76.00
46846;BME280;33947;46.804;134.252;2022-09-20T17:35:22;100626.81;;;1.50;77.52
46846;BME280;33947;46.804;134.252;2022-09-20T17:38:28;100650.69;;;1.75;77.25
46846;BME280;33947;46.804;134.252;2022-09-20T17:41:33;100610.34;;;1.58;75.60
46846;BME280;33947;46.804;134.252;2022-09-20T17:44:39;100625.16;;;1.58;75.36
46846;BME280;33947;46.804;134.252;2022-09-20T17:47:44;100661.09;;;1.70;75.94
46846;BME280;33947;46.804;134.252;2022-09-20T17:50:55;100664.72;;;1.83;77.27
46846;BME280;33947;46.804;134.252;2022-09-20T17:54:01;100672.50;;;1.75;76.32
46846;BME280;33947;46.804;134.252;2022-09-20T17:57:05;100595.00;;;1.14;77.25
46846;BME280;33947;46.804;134.252;2022-09-20T18:00:10;100643.50;;;1.56;76.92
46846;BME280;33947;46.804;134.252;2022-09-20T18:03:16;100661.78;;;1.55;77.99
46846;BME280;33947;46.804;134.252;2022-09-20T18:06:26;100641.53;;;1.40;78.35
46846;BME280;33947;46.804;134.252;2022-09-20T18:09:31;100652.06;;;1.46;78.06
46846;BME280;33947;46.804;134.252;2022-09-20T18:12:36;100673.19;;;1.60;78.18
46846;BME280;33947;46.804;134.252;2022-09-20T18:15:42;100594.06;;;1.12;78.13
46846;BME280;33947;46.804;134.252;2022-09-20T18:18:48;100662.66;;;1.52;77.34
46846;BME280;33947;46.804;134.252;2022-09-20T18:21:53;100682.84;;;1.63;78.09
46846;BME280;33947;46.804;134.252;2022-09-20T18:24:57;100676.78;;;1.68;78.51
46846;BME280;33947;46.804;134.252;2022-09-20T18:28:02;100681.09;;;1.62;78.11
46846;BME280;33947;46.804;134.252;2022-09-20T18:31:06;100678.25;;;1.46;79.75
46846;BME280;33947;46.804;134.252;2022-09-20T18:34:14;100680.72;;;1.34;80.40
46846;BME280;33947;46.804;134.252;2022-09-20T18:37:20;100641.38;;;1.27;80.23
46846;BME280;33947;46.804;134.252;2022-09-20T18:40:25;100680.13;;;1.55;79.62
46846;BME280;33947;46.804;134.252;2022-09-20T18:43:30;100666.69;;;1.30;79.93
46846;BME280;33947;46.804;134.252;2022-09-20T18:46:36;100677.34;;;1.44;79.91
46846;BME280;33947;46.804;134.252;2022-09-20T18:49:40;100689.66;;;1.50;79.12
46846;BME280;33947;46.804;134.252;2022-09-20T18:52:45;100713.44;;;1.67;78.70
46846;BME280;33947;46.804;134.252;2022-09-20T18:55:50;100691.34;;;1.44;79.63
46846;BME280;33947;46.804;134.252;2022-09-20T18:58:58;100668.50;;;1.33;79.89
46846;BME280;33947;46.804;134.252;2022-09-20T19:05:36;100691.94;;;1.23;81.27
46846;BME280;33947;46.804;134.252;2022-09-20T19:08:59;100617.09;;;0.73;81.52
46846;BME280;33947;46.804;134.252;2022-09-20T19:12:24;100730.59;;;1.44;81.04
46846;BME280;33947;46.804;134.252;2022-09-20T19:19:37;100727.91;;;1.38;79.60
46846;BME280;33947;46.804;134.252;2022-09-20T19:26:13;100695.31;;;0.59;81.85
46846;BME280;33947;46.804;134.252;2022-09-20T19:29:26;100746.19;;;0.77;83.21
46846;BME280;33947;46.804;134.252;2022-09-20T19:32:31;100695.63;;;0.78;82.31
46846;BME280;33947;46.804;134.252;2022-09-20T19:35:37;100703.66;;;0.90;81.27
46846;BME280;33947;46.804;134.252;2022-09-20T19:39:13;100723.72;;;0.91;82.17
46846;BME280;33947;46.804;134.252;2022-09-20T19:42:46;100731.19;;;1.25;81.29
46846;BME280;33947;46.804;134.252;2022-09-20T19:49:27;100730.50;;;1.37;79.93
46846;BME280;33947;46.804;134.252;2022-09-20T19:52:33;100725.22;;;1.34;79.37
46846;BME280;33947;46.804;134.252;2022-09-20T19:55:39;100731.16;;;1.22;79.98
46846;BME280;33947;46.804;134.252;2022-09-20T19:58:47;100718.09;;;1.25;79.56
46846;BME280;33947;46.804;134.252;2022-09-20T20:01:56;100765.63;;;1.53;78.84
46846;BME280;33947;46.804;134.252;2022-09-20T20:05:01;100760.91;;;1.30;80.78
46846;BME280;33947;46.804;134.252;2022-09-20T20:08:13;100764.81;;;1.57;79.97
46846;BME280;33947;46.804;134.252;2022-09-20T20:21:47;100709.50;;;2.08;76.32
46846;BME280;33947;46.804;134.252;2022-09-20T20:24:56;100757.03;;;2.39;76.48
46846;BME280;33947;46.804;134.252;2022-09-20T20:28:00;100742.88;;;2.21;76.83
46846;BME280;33947;46.804;134.252;2022-09-20T20:31:05;100777.09;;;2.37;76.87
46846;BME280;33947;46.804;134.252;2022-09-20T20:34:15;100734.78;;;2.01;77.29
46846;BME280;33947;46.804;134.252;2022-09-20T20:37:20;100733.88;;;1.97;77.62
46846;BME280;33947;46.804;134.252;2022-09-20T20:40:26;100726.88;;;1.96;77.59
46846;BME280;33947;46.804;134.252;2022-09-20T20:43:33;100779.75;;;2.40;78.20
46846;BME280;33947;46.804;134.252;2022-09-20T20:46:38;100786.72;;;2.38;78.32
46846;BME280;33947;46.804;134.252;2022-09-20T20:49:44;100739.88;;;1.88;79.11
46846;BME280;33947;46.804;134.252;2022-09-20T20:52:54;100784.78;;;2.18;79.02
46846;BME280;33947;46.804;134.252;2022-09-20T20:56:08;100762.00;;;2.11;78.86
46846;BME280;33947;46.804;134.252;2022-09-20T20:59:13;100764.44;;;1.98;79.00
46846;BME280;33947;46.804;134.252;2022-09-20T21:02:20;100757.44;;;1.96;79.44